Time;durP1;ratioP1;P1;durP2;ratioP2;P2;SDS_P1;SDS_P2;PMS_P1;PMS_P2;Temp;Humidity;BMP_temperature;BMP_pressure;BME280_temperature;BME280_humidity;BME280_pressure;Samples;Min_cycle;Max_cycle;Signal;HPM_P1;HPM_P2
2021/08/14 00:01:07;;;;;;;5.70;2.17;;;;;;;19.41;52.35;101382.13;5023495;28;20599;-76
2021/08/14 00:03:33;;;;;;;8.00;2.50;;;;;;;19.38;52.66;101385.97;5029438;28;20212;-75
2021/08/14 00:06:01;;;;;;;3.53;2.10;;;;;;;19.34;52.55;101381.84;5030447;28;20199;-76
2021/08/14 00:08:28;;;;;;;4.03;2.50;;;;;;;19.33;53.06;101384.69;5031654;28;20239;-75
2021/08/14 00:10:54;;;;;;;6.57;2.17;;;;;;;19.30;52.98;101374.16;5024859;28;20740;-76
2021/08/14 00:13:21;;;;;;;4.90;2.40;;;;;;;19.26;53.16;101376.25;5026978;28;20220;-76
2021/08/14 00:15:47;;;;;;;4.07;2.10;;;;;;;19.23;53.14;101372.97;5028873;28;20203;-76
2021/08/14 00:18:14;;;;;;;5.03;2.17;;;;;;;19.18;53.66;101372.50;5029231;28;20205;-76
2021/08/14 00:20:40;;;;;;;4.97;2.40;;;;;;;19.13;53.70;101381.03;5027602;28;20235;-76
2021/08/14 00:23:09;;;;;;;4.93;2.53;;;;;;;19.08;53.97;101376.03;5024494;28;20207;-76
2021/08/14 00:25:36;;;;;;;4.87;2.33;;;;;;;19.04;54.21;101377.28;5027970;28;20215;-76
2021/08/14 00:28:02;;;;;;;6.20;3.00;;;;;;;19.01;54.38;101365.88;5025330;28;20201;-76
2021/08/14 00:30:29;;;;;;;5.03;2.50;;;;;;;18.97;54.74;101377.97;5021486;28;20234;-75
2021/08/14 00:32:55;;;;;;;8.37;2.57;;;;;;;18.94;54.57;101372.81;5030592;28;20585;-76
2021/08/14 00:35:22;;;;;;;5.47;2.73;;;;;;;18.91;54.91;101367.69;5035205;28;20203;-77
2021/08/14 00:37:48;;;;;;;4.07;2.50;;;;;;;18.89;55.04;101365.13;5027994;28;20228;-76
2021/08/14 00:40:16;;;;;;;6.47;2.70;;;;;;;18.86;55.39;101359.13;5030126;28;20231;-76
2021/08/14 00:42:43;;;;;;;4.40;2.30;;;;;;;18.85;55.36;101368.22;5024190;28;20214;-76
2021/08/14 00:45:10;;;;;;;6.33;2.50;;;;;;;18.83;55.61;101370.19;5026336;28;20209;-76
2021/08/14 00:47:40;;;;;;;5.23;2.30;;;;;;;18.81;55.85;101361.41;5018477;28;20223;-76
2021/08/14 00:50:07;;;;;;;4.67;2.20;;;;;;;18.79;55.79;101360.66;5025467;28;20219;-76
2021/08/14 00:52:34;;;;;;;5.57;2.60;;;;;;;18.77;55.93;101359.94;5030983;28;20577;-75
2021/08/14 00:55:00;;;;;;;4.33;2.00;;;;;;;18.73;56.14;101360.19;5030876;28;20207;-75
2021/08/14 00:57:29;;;;;;;7.13;2.47;;;;;;;18.69;56.21;101357.88;5037386;28;20227;-75
2021/08/14 00:59:56;;;;;;;3.87;2.33;;;;;;;18.65;56.56;101357.28;5021709;28;20724;-76
2021/08/14 01:02:22;;;;;;;6.80;3.00;;;;;;;18.60;56.65;101350.59;5032599;28;20214;-74
2021/08/14 01:04:49;;;;;;;6.07;2.83;;;;;;;18.51;56.72;101360.28;5024869;28;20220;-75
2021/08/14 01:07:16;;;;;;;6.60;2.63;;;;;;;18.42;57.16;101355.69;5030530;28;20206;-76
2021/08/14 01:09:43;;;;;;;4.70;2.40;;;;;;;18.33;57.36;101356.47;5025323;28;20229;-76
2021/08/14 01:12:13;;;;;;;5.87;2.50;;;;;;;18.25;57.88;101348.19;5026045;28;20213;-76
2021/08/14 01:14:41;;;;;;;4.90;2.43;;;;;;;18.18;58.35;101350.53;5030216;28;20213;-76
2021/08/14 01:17:08;;;;;;;7.90;2.73;;;;;;;18.16;58.60;101359.72;5029351;28;20223;-76
2021/08/14 01:19:34;;;;;;;4.47;2.73;;;;;;;18.12;58.68;101359.13;5027096;28;20232;-76
2021/08/14 01:22:02;;;;;;;5.40;2.57;;;;;;;18.09;58.90;101358.56;5031542;28;20205;-76
2021/08/14 01:24:29;;;;;;;5.80;2.63;;;;;;;18.06;59.09;101358.81;5029509;28;20209;-74
2021/08/14 01:26:59;;;;;;;4.33;2.53;;;;;;;18.00;59.08;101352.06;5026648;28;20679;-76
2021/08/14 01:29:26;;;;;;;7.67;2.20;;;;;;;17.89;59.02;101352.97;5028993;28;20307;-74
2021/08/14 01:31:53;;;;;;;4.63;2.60;;;;;;;17.78;59.43;101352.13;5028380;28;20214;-77
2021/08/14 01:34:20;;;;;;;4.67;2.27;;;;;;;17.67;59.54;101356.56;5024455;28;20206;-76
2021/08/14 01:36:47;;;;;;;4.60;2.50;;;;;;;17.57;60.13;101354.72;5028372;28;20592;-75
2021/08/14 01:39:14;;;;;;;5.63;2.90;;;;;;;17.49;59.89;101359.88;5025022;28;20755;-75
2021/08/14 01:41:53;;;;;;;8.27;3.20;;;;;;;17.39;60.31;101359.75;5026226;28;20201;-76
2021/08/14 01:44:21;;;;;;;5.57;3.27;;;;;;;17.32;60.84;101353.16;5021331;28;20662;-75
2021/08/14 01:46:48;;;;;;;5.57;2.87;;;;;;;17.25;61.04;101347.41;5023478;28;20223;-76
2021/08/14 01:49:14;;;;;;;6.10;2.80;;;;;;;17.20;61.41;101333.44;5029483;28;20220;-76
2021/08/14 01:51:41;;;;;;;5.27;2.57;;;;;;;17.18;61.58;101345.34;5027772;28;20594;-75
2021/08/14 01:54:07;;;;;;;8.70;3.23;;;;;;;17.13;61.92;101348.41;5026975;28;20208;-76
2021/08/14 01:56:34;;;;;;;4.63;2.77;;;;;;;17.12;62.02;101357.44;5030022;28;20230;-75
2021/08/14 01:59:01;;;;;;;5.97;2.77;;;;;;;17.12;62.11;101362.81;5022543;28;20204;-76
2021/08/14 02:01:29;;;;;;;4.57;2.87;;;;;;;17.11;62.47;101358.41;5030849;28;20209;-76
2021/08/14 02:03:57;;;;;;;5.10;2.63;;;;;;;17.10;62.70;101356.72;5029857;28;20205;-76
2021/08/14 02:06:26;;;;;;;4.43;2.90;;;;;;;17.08;62.51;101361.34;5027289;28;20208;-76
2021/08/14 02:08:54;;;;;;;6.53;2.97;;;;;;;17.02;62.49;101354.59;5027338;28;20697;-75
2021/08/14 02:11:22;;;;;;;4.27;2.90;;;;;;;16.91;62.28;101361.81;5031002;28;20205;-75
2021/08/14 02:13:50;;;;;;;9.77;3.70;;;;;;;16.79;62.55;101360.97;5026101;28;20212;-75
2021/08/14 02:16:17;;;;;;;4.27;2.80;;;;;;;16.66;62.80;101350.28;5029248;28;20689;-75
2021/08/14 02:18:45;;;;;;;6.93;3.13;;;;;;;16.59;63.41;101348.16;5022952;28;20212;-75
2021/08/14 02:21:12;;;;;;;5.30;2.83;;;;;;;16.56;63.64;101349.25;5028946;28;20691;-76
2021/08/14 02:23:39;;;;;;;6.77;2.83;;;;;;;16.55;63.93;101347.53;5024086;28;20215;-76
2021/08/14 02:26:07;;;;;;;4.97;2.93;;;;;;;16.55;64.16;101360.13;5015648;28;20212;-76
2021/08/14 02:28:34;;;;;;;5.63;2.93;;;;;;;16.53;64.21;101343.25;5023097;28;20206;-75
2021/08/14 02:31:02;;;;;;;6.73;3.13;;;;;;;16.50;64.40;101352.41;5015693;28;20225;-75
2021/08/14 02:33:28;;;;;;;6.30;2.83;;;;;;;16.46;64.99;101336.66;5024626;28;20212;-75
2021/08/14 02:35:57;;;;;;;5.37;3.00;;;;;;;16.44;64.75;101349.34;5019774;28;20207;-75
2021/08/14 02:38:23;;;;;;;4.50;2.70;;;;;;;16.42;65.12;101344.09;5022676;28;20234;-76
2021/08/14 02:40:50;;;;;;;5.40;3.07;;;;;;;16.39;64.94;101349.69;5029366;28;20232;-75
2021/08/14 02:43:18;;;;;;;5.97;3.27;;;;;;;16.36;64.98;101346.38;5013477;28;20214;-76
2021/08/14 02:45:46;;;;;;;5.90;3.27;;;;;;;16.30;64.97;101342.34;5017535;28;20215;-76
2021/08/14 02:48:13;;;;;;;6.70;2.80;;;;;;;16.21;65.17;101338.53;5015594;28;20194;-76
2021/08/14 02:50:40;;;;;;;6.97;3.57;;;;;;;16.15;65.54;101324.69;5013528;28;20238;-76
2021/08/14 02:53:08;;;;;;;5.50;3.37;;;;;;;16.13;66.07;101334.69;5021249;28;20210;-74
2021/08/14 02:55:34;;;;;;;6.03;3.40;;;;;;;16.10;65.99;101330.44;5021749;28;20209;-76
2021/08/14 02:58:01;;;;;;;4.43;2.70;;;;;;;16.11;66.03;101333.97;5029637;28;20334;-75
2021/08/14 03:00:28;;;;;;;6.60;3.23;;;;;;;16.10;66.27;101337.63;5028511;28;20719;-76
2021/08/14 03:02:54;;;;;;;4.90;2.93;;;;;;;16.11;66.61;101339.34;5033980;28;20211;-75
2021/08/14 03:05:21;;;;;;;6.00;2.90;;;;;;;16.11;66.72;101329.47;5026238;28;20214;-75
2021/08/14 03:07:47;;;;;;;6.77;2.73;;;;;;;16.07;66.43;101338.72;5024816;28;20327;-76
2021/08/14 03:10:16;;;;;;;7.57;3.40;;;;;;;15.98;66.21;101332.19;5017777;28;20227;-76
2021/08/14 03:12:42;;;;;;;4.30;2.73;;;;;;;15.91;66.70;101330.97;5023694;28;20203;-76
2021/08/14 03:15:10;;;;;;;8.30;3.23;;;;;;;15.88;66.86;101331.19;5019298;28;20214;-75
2021/08/14 03:17:37;;;;;;;7.10;3.17;;;;;;;15.87;66.80;101333.97;5026554;28;20223;-75
2021/08/14 03:20:06;;;;;;;5.93;3.07;;;;;;;15.83;66.89;101333.34;5017348;28;20240;-75
2021/08/14 03:22:32;;;;;;;4.43;2.90;;;;;;;15.78;67.15;101340.88;5017596;28;20207;-75
2021/08/14 03:24:59;;;;;;;7.97;2.93;;;;;;;15.75;67.20;101334.91;5026381;28;20206;-76
2021/08/14 03:27:27;;;;;;;3.73;2.67;;;;;;;15.71;67.68;101350.38;5030744;28;20225;-76
2021/08/14 03:29:53;;;;;;;6.17;3.10;;;;;;;15.68;67.97;101337.16;5022058;28;20233;-74
2021/08/14 03:32:20;;;;;;;6.67;3.13;;;;;;;15.69;68.12;101338.88;5017223;28;20203;-75
2021/08/14 03:34:46;;;;;;;4.70;3.03;;;;;;;15.68;68.28;101334.47;5020571;28;20203;-75
2021/08/14 03:37:13;;;;;;;4.93;3.30;;;;;;;15.70;68.39;101339.75;5022218;28;20600;-76
2021/08/14 03:39:39;;;;;;;6.20;3.03;;;;;;;15.70;68.43;101332.53;5022406;28;20218;-76
2021/08/14 03:42:06;;;;;;;5.73;3.30;;;;;;;15.69;68.13;101346.94;5024423;28;20203;-76
2021/08/14 03:44:34;;;;;;;5.50;2.97;;;;;;;15.64;67.85;101333.00;5023097;28;20213;-76
2021/08/14 03:47:01;;;;;;;5.13;2.53;;;;;;;15.58;67.94;101330.78;5025101;28;20202;-75
2021/08/14 03:49:27;;;;;;;5.03;2.87;;;;;;;15.54;68.45;101331.94;5022814;28;20231;-76
2021/08/14 03:51:54;;;;;;;4.53;3.23;;;;;;;15.50;68.61;101323.25;5024958;28;20214;-76
2021/08/14 03:54:20;;;;;;;6.63;3.20;;;;;;;15.47;68.25;101325.28;5022727;28;20574;-76
2021/08/14 03:56:47;;;;;;;6.60;3.00;;;;;;;15.43;68.85;101319.28;5022143;28;20232;-75
2021/08/14 03:59:13;;;;;;;6.30;3.30;;;;;;;15.42;68.57;101325.59;5021126;28;20254;-76
2021/08/14 04:01:41;;;;;;;7.33;3.70;;;;;;;15.40;68.95;101329.41;5033121;28;20679;-75
2021/08/14 04:04:08;;;;;;;5.87;2.87;;;;;;;15.41;68.75;101325.72;5025074;28;20225;-75
2021/08/14 04:06:34;;;;;;;5.50;3.33;;;;;;;15.41;69.07;101334.63;5027051;28;20206;-75
2021/08/14 04:09:01;;;;;;;7.47;3.60;;;;;;;15.43;69.55;101334.53;5029116;28;20565;-74
2021/08/14 04:11:27;;;;;;;5.53;3.53;;;;;;;15.45;69.85;101332.59;5019900;28;20206;-75
2021/08/14 04:13:54;;;;;;;4.07;3.20;;;;;;;15.46;69.72;101332.47;5019291;28;20205;-76
2021/08/14 04:16:20;;;;;;;4.10;3.20;;;;;;;15.47;69.53;101338.72;5026689;28;20209;-76
2021/08/14 04:18:48;;;;;;;5.83;3.80;;;;;;;15.47;69.29;101336.03;5019238;28;20244;-75
2021/08/14 04:21:15;;;;;;;5.67;3.67;;;;;;;15.44;69.23;101331.72;5029181;28;20256;-76
2021/08/14 04:23:41;;;;;;;5.63;4.10;;;;;;;15.42;69.32;101340.84;5027372;28;20207;-76
2021/08/14 04:26:08;;;;;;;5.37;3.47;;;;;;;15.38;69.67;101334.03;5023975;28;20213;-76
2021/08/14 04:28:34;;;;;;;7.40;3.53;;;;;;;15.35;70.29;101335.09;5031173;28;20575;-75
2021/08/14 04:31:01;;;;;;;6.20;3.47;;;;;;;15.35;70.28;101331.56;5029388;28;20222;-75
2021/08/14 04:33:27;;;;;;;4.30;3.47;;;;;;;15.37;70.01;101327.78;5018633;28;20203;-76
2021/08/14 04:35:55;;;;;;;6.67;3.70;;;;;;;15.39;70.35;101330.38;5018752;28;20203;-75
2021/08/14 04:38:22;;;;;;;6.60;3.60;;;;;;;15.42;70.64;101340.84;5033454;28;20228;-76
2021/08/14 04:40:48;;;;;;;6.50;3.97;;;;;;;15.43;70.63;101334.53;5016452;28;20820;-76
2021/08/14 04:43:15;;;;;;;6.27;3.57;;;;;;;15.45;70.66;101328.06;5027693;28;20199;-76
2021/08/14 04:45:41;;;;;;;6.90;3.60;;;;;;;15.47;70.93;101336.03;5022619;28;20210;-76
2021/08/14 04:48:08;;;;;;;5.73;3.80;;;;;;;15.46;70.75;101332.47;5016115;28;20198;-75
2021/08/14 04:50:34;;;;;;;6.00;3.60;;;;;;;15.47;70.45;101331.50;5022217;28;20230;-76
2021/08/14 04:53:02;;;;;;;5.73;4.10;;;;;;;15.48;70.53;101335.91;5026173;28;20214;-75
2021/08/14 04:55:29;;;;;;;6.27;3.63;;;;;;;15.49;70.51;101336.78;5023723;28;20207;-74
2021/08/14 04:57:55;;;;;;;6.37;3.63;;;;;;;15.51;70.29;101337.53;5029293;28;20227;-75
2021/08/14 05:00:22;;;;;;;4.80;3.30;;;;;;;15.53;70.34;101332.91;5022619;28;20231;-76
2021/08/14 05:02:49;;;;;;;7.03;3.63;;;;;;;15.57;70.53;101334.44;5036760;28;20207;-76
2021/08/14 05:05:15;;;;;;;8.30;4.00;;;;;;;15.60;70.48;101336.88;5021745;28;20211;-76
2021/08/14 05:07:42;;;;;;;6.90;3.30;;;;;;;15.63;70.34;101340.19;5016950;28;20214;-76
2021/08/14 05:10:13;;;;;;;6.37;3.40;;;;;;;15.67;70.66;101337.28;5028597;28;20228;-75
2021/08/14 05:12:40;;;;;;;4.77;3.77;;;;;;;15.68;70.79;101339.84;5022753;28;20203;-75
2021/08/14 05:15:08;;;;;;;7.80;3.87;;;;;;;15.70;71.17;101340.59;5025427;28;20218;-74
2021/08/14 05:17:34;;;;;;;6.17;3.13;;;;;;;15.71;71.11;101339.63;5027117;28;20202;-76
2021/08/14 05:20:01;;;;;;;6.43;3.33;;;;;;;15.72;71.16;101346.72;5012314;28;20231;-74
2021/08/14 05:22:27;;;;;;;4.43;3.50;;;;;;;15.74;71.16;101346.63;5027157;28;20210;-75
2021/08/14 05:24:54;;;;;;;6.83;3.00;;;;;;;15.75;71.23;101343.81;5029840;28;20198;-74
2021/08/14 05:27:22;;;;;;;4.70;2.70;;;;;;;15.80;71.46;101340.75;5026201;28;20678;-74
2021/08/14 05:29:48;;;;;;;7.43;3.40;;;;;;;15.84;71.42;101343.13;5023814;28;20277;-74
2021/08/14 05:32:15;;;;;;;7.47;3.30;;;;;;;15.91;72.17;101344.38;5027598;28;20208;-75
2021/08/14 05:34:41;;;;;;;9.17;3.33;;;;;;;15.99;72.15;101338.41;5021543;28;20230;-74
2021/08/14 05:37:08;;;;;;;7.60;2.70;;;;;;;16.10;71.59;101345.69;5020674;28;20674;-75
2021/08/14 05:39:34;;;;;;;7.03;2.70;;;;;;;16.19;71.25;101339.59;5022138;28;20249;-75
2021/08/14 05:42:01;;;;;;;8.57;3.07;;;;;;;16.27;70.66;101337.22;5015568;28;20204;-75
2021/08/14 05:44:29;;;;;;;6.47;2.60;;;;;;;16.39;69.87;101338.09;5016900;28;20231;-74
2021/08/14 05:46:56;;;;;;;7.03;2.87;;;;;;;16.48;69.27;101329.34;5018502;28;20207;-75
2021/08/14 05:49:22;;;;;;;7.43;3.00;;;;;;;16.57;68.97;101329.47;5024124;28;20225;-75
2021/08/14 05:51:49;;;;;;;7.30;3.00;;;;;;;16.68;68.61;101328.66;5023623;28;20223;-74
2021/08/14 05:54:16;;;;;;;8.23;2.73;;;;;;;16.79;68.08;101327.81;5022863;28;20266;-75
2021/08/14 05:56:42;;;;;;;9.60;3.00;;;;;;;16.92;67.73;101323.19;5012027;28;20725;-75
2021/08/14 05:59:09;;;;;;;6.40;3.00;;;;;;;17.09;67.40;101322.69;5021665;28;20321;-75
2021/08/14 06:01:37;;;;;;;5.57;2.53;;;;;;;17.27;66.58;101318.53;5028037;28;20209;-75
2021/08/14 06:04:04;;;;;;;10.43;2.83;;;;;;;17.47;66.23;101318.75;5030860;28;20208;-75
2021/08/14 06:06:30;;;;;;;9.73;3.00;;;;;;;17.68;65.63;101322.41;5021862;28;20211;-74
2021/08/14 06:08:57;;;;;;;7.00;2.60;;;;;;;17.86;64.78;101326.28;5024246;28;20234;-75
2021/08/14 06:11:23;;;;;;;7.40;2.60;;;;;;;18.06;64.31;101321.91;5028029;28;20584;-75
2021/08/14 06:13:50;;;;;;;8.40;3.13;;;;;;;18.28;63.63;101329.88;5019405;28;20207;-75
2021/08/14 06:16:16;;;;;;;8.73;2.70;;;;;;;18.45;62.84;101320.34;5025548;28;20218;-75
2021/08/14 06:18:44;;;;;;;6.70;2.60;;;;;;;18.65;62.12;101316.81;5018608;28;20236;-75
2021/08/14 06:21:12;;;;;;;7.17;2.90;;;;;;;18.81;61.27;101319.03;5024661;28;20220;-76
2021/08/14 06:23:38;;;;;;;4.63;2.70;;;;;;;19.00;61.12;101327.22;5022863;28;20228;-75
2021/08/14 06:26:05;;;;;;;7.27;3.07;;;;;;;19.18;60.33;101318.50;5022727;28;20214;-74
2021/08/14 06:28:31;;;;;;;6.83;3.20;;;;;;;19.35;60.10;101320.53;5020905;28;20214;-74
2021/08/14 06:30:58;;;;;;;7.23;3.27;;;;;;;19.49;59.67;101317.47;5020735;28;20580;-75
2021/08/14 06:33:24;;;;;;;5.67;2.50;;;;;;;19.64;59.17;101321.53;5016872;28;20702;-75
2021/08/14 06:35:52;;;;;;;6.07;2.57;;;;;;;19.81;58.98;101319.13;5018789;28;20226;-75
2021/08/14 06:38:19;;;;;;;5.73;2.60;;;;;;;19.98;58.82;101319.28;5024305;28;20229;-75
2021/08/14 06:40:45;;;;;;;7.30;2.87;;;;;;;20.13;57.74;101313.44;5027083;28;20243;-75
2021/08/14 06:43:12;;;;;;;7.83;3.00;;;;;;;20.23;56.98;101309.75;5023105;28;20212;-75
2021/08/14 06:45:38;;;;;;;8.73;3.00;;;;;;;20.35;56.50;101310.44;5027402;28;20658;-75
2021/08/14 06:48:05;;;;;;;6.00;2.40;;;;;;;20.47;56.01;101309.31;5025210;28;20202;-75
2021/08/14 06:50:32;;;;;;;9.73;3.37;;;;;;;20.59;55.64;101313.59;5017096;28;20237;-75
2021/08/14 06:53:00;;;;;;;6.23;2.53;;;;;;;20.74;55.36;101312.13;5014423;28;20214;-74
2021/08/14 06:55:26;;;;;;;9.27;3.10;;;;;;;20.87;54.43;101310.94;5017563;28;20672;-75
2021/08/14 06:57:53;;;;;;;8.97;2.80;;;;;;;20.97;53.53;101306.31;5023733;28;20201;-74
2021/08/14 07:00:20;;;;;;;5.80;2.73;;;;;;;21.11;53.71;101305.88;5021628;28;20265;-78
2021/08/14 07:02:46;;;;;;;8.90;2.67;;;;;;;21.26;53.08;101308.97;5026965;28;20207;-75
2021/08/14 07:05:13;;;;;;;7.10;2.63;;;;;;;21.41;52.72;101311.00;5018679;28;20220;-75
2021/08/14 07:07:39;;;;;;;8.10;2.60;;;;;;;21.58;51.99;101309.34;5016708;28;20823;-75
2021/08/14 07:10:09;;;;;;;5.50;2.50;;;;;;;21.74;51.02;101308.66;5018642;28;20223;-76
2021/08/14 07:12:36;;;;;;;5.10;2.40;;;;;;;21.88;51.31;101305.41;5020851;28;20209;-75
2021/08/14 07:15:02;;;;;;;5.78;2.35;;;;;;;21.99;50.17;101309.78;5013793;28;20210;-75
2021/08/14 07:17:29;;;;;;;7.47;2.70;;;;;;;22.03;49.97;101305.78;5017723;28;20230;-74
2021/08/14 07:19:55;;;;;;;5.57;2.30;;;;;;;22.07;49.83;101310.72;5021196;28;20230;-75
2021/08/14 07:22:22;;;;;;;6.57;2.80;;;;;;;22.14;49.40;101306.38;5022689;28;20198;-75
2021/08/14 07:24:48;;;;;;;7.70;2.47;;;;;;;22.18;49.54;101312.34;5021635;28;20210;-74
2021/08/14 07:27:16;;;;;;;6.50;2.65;;;;;;;22.21;49.36;101305.78;5023220;28;20206;-74
2021/08/14 07:29:43;;;;;;;6.32;2.67;;;;;;;22.25;49.35;101313.41;5022343;28;20230;-76
2021/08/14 07:32:11;;;;;;;5.95;2.25;;;;;;;22.27;49.26;101314.13;5017117;28;20683;-75
2021/08/14 07:34:38;;;;;;;8.32;2.40;;;;;;;22.32;49.10;101313.66;5020474;28;20237;-76
2021/08/14 07:37:04;;;;;;;8.73;2.55;;;;;;;22.34;48.88;101308.91;5016083;28;20206;-76
2021/08/14 07:39:31;;;;;;;6.80;2.67;;;;;;;22.34;48.56;101304.34;5009494;28;20237;-75
2021/08/14 07:41:57;;;;;;;5.70;2.70;;;;;;;22.31;48.60;101307.38;5016813;28;20203;-75
2021/08/14 07:44:25;;;;;;;6.40;2.90;;;;;;;22.32;48.69;101306.38;5024584;28;20206;-76
2021/08/14 07:46:52;;;;;;;4.93;2.30;;;;;;;22.32;48.76;101302.78;5014970;28;20203;-77
2021/08/14 07:49:18;;;;;;;7.13;2.55;;;;;;;22.34;48.71;101315.19;5021229;28;20218;-76
2021/08/14 07:51:45;;;;;;;8.20;2.72;;;;;;;22.35;48.21;101307.91;5021406;28;20679;-76
2021/08/14 07:54:11;;;;;;;7.50;2.50;;;;;;;22.35;48.37;101299.78;5018953;28;20209;-76
2021/08/14 07:56:38;;;;;;;6.78;2.58;;;;;;;22.37;48.47;101295.03;5023222;28;20660;-76
2021/08/14 07:59:04;;;;;;;8.73;3.15;;;;;;;22.39;48.29;101293.03;5021301;28;20230;-76
2021/08/14 08:01:32;;;;;;;8.38;2.90;;;;;;;22.45;48.44;101292.38;5021107;28;20667;-75
2021/08/14 08:03:59;;;;;;;4.28;2.42;;;;;;;22.60;48.70;101287.22;5026374;28;20207;-76
2021/08/14 08:06:25;;;;;;;6.00;3.00;;;;;;;22.75;48.21;101294.59;5023260;28;20217;-76
2021/08/14 08:08:52;;;;;;;7.70;3.95;;;;;;;22.90;47.99;101294.06;5028642;28;20206;-76
2021/08/14 08:11:18;;;;;;;7.90;3.33;;;;;;;22.98;47.62;101294.09;5023363;28;20217;-76
2021/08/14 08:13:45;;;;;;;6.90;3.42;;;;;;;23.07;47.56;101288.56;5025087;28;20555;-76
2021/08/14 08:16:11;;;;;;;7.55;3.50;;;;;;;23.25;47.71;101285.75;5028558;28;20208;-76
2021/08/14 08:18:39;;;;;;;9.10;4.20;;;;;;;23.43;47.45;101286.50;5024252;28;20233;-76
2021/08/14 08:21:06;;;;;;;12.35;4.10;;;;;;;23.57;46.77;101281.44;5017597;28;20237;-76
2021/08/14 08:23:32;;;;;;;6.05;3.85;;;;;;;23.62;46.98;101282.66;5016585;28;20213;-76
2021/08/14 08:25:59;;;;;;;8.25;4.75;;;;;;;23.65;46.73;101276.00;5024775;28;20218;-76
2021/08/14 08:28:25;;;;;;;14.65;4.80;;;;;;;23.67;46.72;101271.25;5024195;28;20682;-77
2021/08/14 08:30:52;;;;;;;9.55;4.50;;;;;;;23.71;47.06;101272.63;5024419;28;20219;-74
2021/08/14 08:33:18;;;;;;;9.02;4.10;;;;;;;23.70;47.14;101269.06;5021423;28;20573;-73
2021/08/14 08:35:46;;;;;;;7.88;4.15;;;;;;;23.69;47.16;101278.25;5020045;28;20237;-74
2021/08/14 08:38:13;;;;;;;7.53;4.32;;;;;;;23.70;47.29;101274.50;5020100;28;20213;-73
2021/08/14 08:40:41;;;;;;;8.68;5.00;;;;;;;23.71;47.25;101280.78;5016667;28;20270;-74
2021/08/14 08:43:09;;;;;;;7.22;4.78;;;;;;;23.72;46.83;101277.06;5025265;28;20560;-74
2021/08/14 08:45:36;;;;;;;10.68;4.68;;;;;;;23.73;46.98;101270.59;5021665;28;20210;-74
2021/08/14 08:48:05;;;;;;;8.82;4.75;;;;;;;23.69;46.92;101269.22;5023177;28;20207;-72
2021/08/14 08:50:32;;;;;;;8.10;4.88;;;;;;;23.65;47.30;101266.00;5022288;28;20222;-74
2021/08/14 08:53:02;;;;;;;7.10;4.28;;;;;;;23.62;47.53;101258.19;5023609;28;20218;-74
2021/08/14 08:55:28;;;;;;;8.55;4.60;;;;;;;23.58;47.58;101258.69;5020374;28;20211;-73
2021/08/14 08:57:58;;;;;;;11.52;4.75;;;;;;;23.54;47.80;101253.56;5021768;28;20228;-75
2021/08/14 09:00:25;;;;;;;7.00;3.88;;;;;;;23.53;47.98;101256.44;5024557;28;20233;-72
2021/08/14 09:03:07;;;;;;;9.50;6.10;;;;;;;23.50;47.72;101254.88;5024219;28;20324;-75
2021/08/14 09:05:33;;;;;;;10.52;6.63;;;;;;;23.49;47.44;101255.91;5019092;28;20214;-75
2021/08/14 09:08:11;;;;;;;11.15;5.88;;;;;;;23.50;47.47;101254.88;5025667;28;20203;-74
2021/08/14 09:10:38;;;;;;;16.30;6.45;;;;;;;23.53;47.13;101251.88;5022721;28;20271;-73
2021/08/14 09:13:12;;;;;;;12.57;6.10;;;;;;;23.59;47.05;101249.50;5028607;28;20210;-76
2021/08/14 09:15:39;;;;;;;10.18;6.28;;;;;;;23.61;47.19;101253.78;5020001;28;20242;-76
2021/08/14 09:18:08;;;;;;;11.32;6.50;;;;;;;23.66;46.98;101247.81;5020742;28;20810;-73
2021/08/14 09:20:46;;;;;;;41.92;9.38;;;;;;;23.71;47.06;101238.13;5019756;28;20241;-75
2021/08/14 09:23:15;;;;;;;12.15;5.90;;;;;;;23.79;47.10;101229.16;5024538;28;20237;-75
2021/08/14 09:25:43;;;;;;;10.23;5.75;;;;;;;23.86;46.92;101241.03;5021755;28;20208;-75
2021/08/14 09:28:11;;;;;;;7.85;4.82;;;;;;;23.91;46.55;101240.53;5019247;28;20202;-74
2021/08/14 09:30:49;;;;;;;7.78;4.85;;;;;;;23.94;46.28;101227.44;5018074;28;20220;-74
2021/08/14 09:33:19;;;;;;;9.75;4.97;;;;;;;23.99;46.00;101226.94;5023457;28;20207;-74
2021/08/14 09:35:46;;;;;;;8.05;4.30;;;;;;;24.06;45.23;101225.22;5022207;28;20681;-74
2021/08/14 09:38:15;;;;;;;6.85;4.38;;;;;;;24.13;44.93;101220.81;5020256;28;20591;-75
2021/08/14 09:40:43;;;;;;;8.10;4.63;;;;;;;24.25;44.32;101218.59;5021747;28;20289;-75
2021/08/14 09:43:11;;;;;;;11.63;4.93;;;;;;;24.35;44.39;101220.16;5013384;28;20206;-74
2021/08/14 09:45:38;;;;;;;8.00;4.15;;;;;;;24.49;44.06;101224.88;5021875;28;20202;-75
2021/08/14 09:48:18;;;;;;;8.50;4.43;;;;;;;24.64;43.66;101222.28;5012402;28;20209;-75
2021/08/14 09:50:45;;;;;;;9.13;5.22;;;;;;;24.77;43.32;101217.13;5019524;28;20665;-72
2021/08/14 09:53:15;;;;;;;7.20;4.95;;;;;;;24.83;43.33;101213.69;5017690;28;20217;-75
2021/08/14 09:55:41;;;;;;;7.55;4.15;;;;;;;24.91;43.51;101219.09;5021720;28;20572;-75
2021/08/14 09:58:10;;;;;;;8.95;5.25;;;;;;;25.00;42.90;101216.38;5023607;28;20675;-75
2021/08/14 10:00:37;;;;;;;8.98;5.18;;;;;;;25.08;43.31;101214.44;5018535;28;20241;-75
2021/08/14 10:03:04;;;;;;;9.65;5.30;;;;;;;25.18;43.11;101219.69;5022805;28;20206;-75
2021/08/14 10:05:32;;;;;;;9.18;4.50;;;;;;;25.30;42.91;101221.00;5018886;28;20585;-72
2021/08/14 10:08:00;;;;;;;7.78;4.75;;;;;;;25.44;42.64;101216.66;5021591;28;20217;-74
2021/08/14 10:10:28;;;;;;;5.18;4.28;;;;;;;25.58;42.75;101213.16;5021449;28;20721;-74
2021/08/14 10:12:57;;;;;;;7.28;4.18;;;;;;;25.69;42.52;101211.91;5016941;28;20213;-75
2021/08/14 10:15:23;;;;;;;7.57;4.82;;;;;;;25.80;41.89;101217.78;5020856;28;20213;-75
2021/08/14 10:17:50;;;;;;;10.13;5.10;;;;;;;25.89;41.41;101202.19;5020907;28;20214;-72
2021/08/14 10:20:17;;;;;;;9.27;4.63;;;;;;;25.96;41.40;101195.00;5013084;28;20235;-74
2021/08/14 10:22:45;;;;;;;6.85;4.30;;;;;;;26.05;41.27;101188.41;5013624;28;20237;-75
2021/08/14 10:25:17;;;;;;;7.90;4.53;;;;;;;26.11;41.15;101186.84;5017471;28;20635;-75
2021/08/14 10:27:57;;;;;;;6.78;4.68;;;;;;;26.16;41.04;101185.22;5020691;28;20218;-74
2021/08/14 10:30:47;;;;;;;6.10;4.35;;;;;;;26.18;40.55;101180.44;5016583;28;20256;-72
2021/08/14 10:33:37;;;;;;;8.82;4.50;;;;;;;26.22;41.23;101176.28;5013526;28;20199;-75
2021/08/14 10:36:35;;;;;;;7.97;4.68;;;;;;;26.30;40.45;101180.88;5014691;28;20895;-76
2021/08/14 10:39:19;;;;;;;8.45;4.47;;;;;;;26.30;40.14;101169.09;5015346;28;20199;-76
2021/08/14 10:41:47;;;;;;;7.07;4.50;;;;;;;26.31;40.17;101166.19;5013756;28;20206;-74
2021/08/14 10:44:16;;;;;;;8.77;4.03;;;;;;;26.37;40.43;101165.41;5018833;28;20226;-75
2021/08/14 10:46:47;;;;;;;8.82;4.60;;;;;;;26.41;39.97;101164.00;5022886;28;20206;-76
2021/08/14 10:49:16;;;;;;;7.20;4.55;;;;;;;26.42;39.99;101159.41;5019333;28;20250;-76
2021/08/14 10:52:11;;;;;;;7.40;4.60;;;;;;;26.45;40.53;101156.28;5017123;28;20221;-77
2021/08/14 10:55:12;;;;;;;8.15;4.63;;;;;;;26.45;40.40;101156.28;5017003;28;20237;-76
2021/08/14 10:57:40;;;;;;;10.80;4.78;;;;;;;26.43;40.34;101145.56;5018003;28;20198;-76
2021/08/14 11:00:15;;;;;;;9.35;4.88;;;;;;;26.49;40.93;101146.69;5017354;28;20237;-75
2021/08/14 11:03:07;;;;;;;7.70;4.72;;;;;;;26.50;40.38;101138.31;5025902;28;20225;-75
2021/08/14 11:05:35;;;;;;;7.47;4.72;;;;;;;26.50;40.21;101134.72;5022501;28;20562;-77
2021/08/14 11:08:02;;;;;;;7.82;4.18;;;;;;;26.51;40.43;101129.06;5018921;28;20211;-77
2021/08/14 11:10:35;;;;;;;9.05;4.35;;;;;;;26.53;40.79;101131.59;5017915;28;20241;-72
2021/08/14 11:13:02;;;;;;;8.68;4.22;;;;;;;26.61;40.91;101126.03;5019736;28;20210;-76
2021/08/14 11:15:38;;;;;;;7.85;3.83;;;;;;;26.67;40.58;101125.28;5020238;28;20198;-76
2021/08/14 11:18:06;;;;;;;9.25;4.05;;;;;;;26.65;40.08;101113.72;5017481;28;20209;-76
2021/08/14 11:20:37;;;;;;;6.05;3.63;;;;;;;26.65;40.10;101121.06;5019940;28;20718;-76
2021/08/14 11:23:21;;;;;;;12.55;3.90;;;;;;;26.67;40.25;101116.25;5024544;28;20222;-75
2021/08/14 11:25:49;;;;;;;7.20;3.47;;;;;;;26.75;40.51;101118.84;5016320;28;20288;-75
2021/08/14 11:28:20;;;;;;;5.78;3.78;;;;;;;26.78;40.22;101116.59;5017822;28;20211;-76